sensor_id;sensor_type;location;lat;lon;timestamp;P1;durP1;ratioP1;P2;durP2;ratioP2
7957;SDS011;4024;52.172;5.378;2023-03-03T00:02:17;16.37;;;11.43;;
7957;SDS011;4024;52.172;5.378;2023-03-03T00:04:43;15.67;;;11.50;;
7957;SDS011;4024;52.172;5.378;2023-03-03T00:07:09;15.13;;;11.03;;
7957;SDS011;4024;52.172;5.378;2023-03-03T00:09:35;16.37;;;11.60;;
7957;SDS011;4024;52.172;5.378;2023-03-03T00:12:01;15.97;;;11.17;;
7957;SDS011;4024;52.172;5.378;2023-03-03T00:14:49;18.27;;;11.73;;
7957;SDS011;4024;52.172;5.378;2023-03-03T00:19:46;19.23;;;13.10;;
7957;SDS011;4024;52.172;5.378;2023-03-03T00:22:21;18.77;;;11.73;;
7957;SDS011;4024;52.172;5.378;2023-03-03T00:24:54;19.17;;;13.23;;
7957;SDS011;4024;52.172;5.378;2023-03-03T00:27:27;19.60;;;13.93;;
7957;SDS011;4024;52.172;5.378;2023-03-03T00:29:57;19.93;;;13.60;;
7957;SDS011;4024;52.172;5.378;2023-03-03T00:34:52;19.67;;;14.00;;
7957;SDS011;4024;52.172;5.378;2023-03-03T00:37:30;21.93;;;13.73;;
7957;SDS011;4024;52.172;5.378;2023-03-03T00:40:12;22.20;;;14.67;;
7957;SDS011;4024;52.172;5.378;2023-03-03T00:42:46;20.87;;;13.33;;
7957;SDS011;4024;52.172;5.378;2023-03-03T00:45:36;20.60;;;13.17;;
7957;SDS011;4024;52.172;5.378;2023-03-03T00:50:48;20.40;;;14.20;;
7957;SDS011;4024;52.172;5.378;2023-03-03T00:53:16;19.43;;;13.80;;
7957;SDS011;4024;52.172;5.378;2023-03-03T00:55:43;23.63;;;15.57;;
7957;SDS011;4024;52.172;5.378;2023-03-03T00:58:09;23.60;;;16.27;;
7957;SDS011;4024;52.172;5.378;2023-03-03T01:00:35;22.97;;;16.73;;
7957;SDS011;4024;52.172;5.378;2023-03-03T01:03:03;27.00;;;17.70;;
7957;SDS011;4024;52.172;5.378;2023-03-03T01:05:30;26.43;;;18.23;;
7957;SDS011;4024;52.172;5.378;2023-03-03T01:07:56;27.73;;;17.20;;
7957;SDS011;4024;52.172;5.378;2023-03-03T01:10:21;24.50;;;16.63;;
7957;SDS011;4024;52.172;5.378;2023-03-03T01:12:47;28.40;;;18.77;;
7957;SDS011;4024;52.172;5.378;2023-03-03T01:15:13;30.37;;;18.90;;
7957;SDS011;4024;52.172;5.378;2023-03-03T01:17:40;32.83;;;19.30;;
7957;SDS011;4024;52.172;5.378;2023-03-03T01:20:07;28.27;;;18.50;;
7957;SDS011;4024;52.172;5.378;2023-03-03T01:22:35;30.90;;;20.27;;
7957;SDS011;4024;52.172;5.378;2023-03-03T01:25:01;31.17;;;20.10;;
7957;SDS011;4024;52.172;5.378;2023-03-03T01:27:28;31.93;;;20.13;;
7957;SDS011;4024;52.172;5.378;2023-03-03T01:29:54;28.70;;;19.20;;
7957;SDS011;4024;52.172;5.378;2023-03-03T01:32:21;29.77;;;19.63;;
7957;SDS011;4024;52.172;5.378;2023-03-03T01:34:47;34.90;;;19.70;;
7957;SDS011;4024;52.172;5.378;2023-03-03T01:37:13;32.87;;;20.43;;
7957;SDS011;4024;52.172;5.378;2023-03-03T01:39:39;28.17;;;20.07;;
7957;SDS011;4024;52.172;5.378;2023-03-03T01:42:04;31.00;;;19.40;;
7957;SDS011;4024;52.172;5.378;2023-03-03T01:44:30;29.27;;;19.17;;
7957;SDS011;4024;52.172;5.378;2023-03-03T01:47:02;28.67;;;19.60;;
7957;SDS011;4024;52.172;5.378;2023-03-03T01:50:05;29.43;;;19.93;;
7957;SDS011;4024;52.172;5.378;2023-03-03T01:52:40;29.20;;;19.27;;
7957;SDS011;4024;52.172;5.378;2023-03-03T01:55:12;28.40;;;19.40;;
7957;SDS011;4024;52.172;5.378;2023-03-03T01:58:06;30.33;;;18.93;;
7957;SDS011;4024;52.172;5.378;2023-03-03T02:00:37;30.83;;;19.03;;
7957;SDS011;4024;52.172;5.378;2023-03-03T02:03:04;28.87;;;19.10;;
7957;SDS011;4024;52.172;5.378;2023-03-03T02:05:30;32.23;;;20.60;;
7957;SDS011;4024;52.172;5.378;2023-03-03T02:07:57;30.23;;;18.80;;
7957;SDS011;4024;52.172;5.378;2023-03-03T02:10:23;28.73;;;19.47;;
7957;SDS011;4024;52.172;5.378;2023-03-03T02:12:50;29.50;;;18.70;;
7957;SDS011;4024;52.172;5.378;2023-03-03T02:15:18;31.77;;;19.33;;
7957;SDS011;4024;52.172;5.378;2023-03-03T02:17:44;28.30;;;18.83;;
7957;SDS011;4024;52.172;5.378;2023-03-03T02:20:18;29.83;;;18.80;;
7957;SDS011;4024;52.172;5.378;2023-03-03T02:23:12;27.27;;;18.47;;
7957;SDS011;4024;52.172;5.378;2023-03-03T02:28:21;32.93;;;19.60;;
7957;SDS011;4024;52.172;5.378;2023-03-03T02:30:48;31.17;;;19.83;;
7957;SDS011;4024;52.172;5.378;2023-03-03T02:33:17;30.83;;;19.43;;
7957;SDS011;4024;52.172;5.378;2023-03-03T02:35:42;33.23;;;20.87;;
7957;SDS011;4024;52.172;5.378;2023-03-03T02:38:16;30.83;;;20.27;;
7957;SDS011;4024;52.172;5.378;2023-03-03T02:40:56;33.83;;;20.17;;
7957;SDS011;4024;52.172;5.378;2023-03-03T02:43:29;31.53;;;19.73;;
7957;SDS011;4024;52.172;5.378;2023-03-03T02:46:03;29.03;;;18.60;;
7957;SDS011;4024;52.172;5.378;2023-03-03T02:48:29;31.17;;;19.30;;
7957;SDS011;4024;52.172;5.378;2023-03-03T02:50:54;30.33;;;19.27;;
7957;SDS011;4024;52.172;5.378;2023-03-03T02:53:20;29.67;;;19.07;;
7957;SDS011;4024;52.172;5.378;2023-03-03T02:55:46;33.77;;;20.07;;
7957;SDS011;4024;52.172;5.378;2023-03-03T02:58:11;28.33;;;18.93;;
7957;SDS011;4024;52.172;5.378;2023-03-03T03:00:37;30.27;;;19.10;;
7957;SDS011;4024;52.172;5.378;2023-03-03T03:03:02;32.43;;;19.67;;
7957;SDS011;4024;52.172;5.378;2023-03-03T03:05:28;30.50;;;19.50;;
7957;SDS011;4024;52.172;5.378;2023-03-03T03:07:53;29.60;;;18.80;;
7957;SDS011;4024;52.172;5.378;2023-03-03T03:10:19;32.87;;;20.33;;
7957;SDS011;4024;52.172;5.378;2023-03-03T03:12:44;32.53;;;20.50;;
7957;SDS011;4024;52.172;5.378;2023-03-03T03:15:10;32.57;;;20.50;;
7957;SDS011;4024;52.172;5.378;2023-03-03T03:17:36;32.30;;;21.23;;
7957;SDS011;4024;52.172;5.378;2023-03-03T03:20:03;35.23;;;21.70;;
7957;SDS011;4024;52.172;5.378;2023-03-03T03:22:29;34.50;;;21.40;;
7957;SDS011;4024;52.172;5.378;2023-03-03T03:24:54;35.43;;;21.63;;
7957;SDS011;4024;52.172;5.378;2023-03-03T03:27:20;34.10;;;20.43;;
7957;SDS011;4024;52.172;5.378;2023-03-03T03:29:47;34.43;;;19.27;;
7957;SDS011;4024;52.172;5.378;2023-03-03T03:32:13;29.60;;;18.93;;
7957;SDS011;4024;52.172;5.378;2023-03-03T03:34:38;35.40;;;20.40;;
7957;SDS011;4024;52.172;5.378;2023-03-03T03:37:04;34.30;;;19.20;;
7957;SDS011;4024;52.172;5.378;2023-03-03T03:39:30;35.10;;;20.67;;
7957;SDS011;4024;52.172;5.378;2023-03-03T03:41:56;35.23;;;20.93;;
7957;SDS011;4024;52.172;5.378;2023-03-03T03:44:21;32.93;;;20.10;;
7957;SDS011;4024;52.172;5.378;2023-03-03T03:46:49;31.47;;;18.63;;
7957;SDS011;4024;52.172;5.378;2023-03-03T03:49:14;33.47;;;19.80;;
7957;SDS011;4024;52.172;5.378;2023-03-03T03:51:40;35.10;;;21.80;;
7957;SDS011;4024;52.172;5.378;2023-03-03T03:54:06;32.73;;;19.50;;
7957;SDS011;4024;52.172;5.378;2023-03-03T03:56:31;32.93;;;20.27;;
7957;SDS011;4024;52.172;5.378;2023-03-03T03:58:57;29.23;;;18.40;;
7957;SDS011;4024;52.172;5.378;2023-03-03T04:01:24;30.10;;;18.10;;
7957;SDS011;4024;52.172;5.378;2023-03-03T04:03:50;27.07;;;17.00;;
7957;SDS011;4024;52.172;5.378;2023-03-03T04:06:16;25.60;;;14.87;;
7957;SDS011;4024;52.172;5.378;2023-03-03T04:08:42;26.27;;;16.07;;
7957;SDS011;4024;52.172;5.378;2023-03-03T04:11:08;26.63;;;15.80;;
7957;SDS011;4024;52.172;5.378;2023-03-03T04:13:34;28.77;;;17.07;;
7957;SDS011;4024;52.172;5.378;2023-03-03T04:16:00;31.37;;;17.97;;
7957;SDS011;4024;52.172;5.378;2023-03-03T04:18:26;30.17;;;17.67;;
7957;SDS011;4024;52.172;5.378;2023-03-03T04:20:52;32.03;;;17.30;;
7957;SDS011;4024;52.172;5.378;2023-03-03T04:23:18;32.50;;;18.07;;
7957;SDS011;4024;52.172;5.378;2023-03-03T04:25:47;32.10;;;18.33;;
7957;SDS011;4024;52.172;5.378;2023-03-03T04:28:14;34.30;;;17.90;;
7957;SDS011;4024;52.172;5.378;2023-03-03T04:30:42;31.03;;;17.77;;
7957;SDS011;4024;52.172;5.378;2023-03-03T04:33:09;26.93;;;16.73;;
7957;SDS011;4024;52.172;5.378;2023-03-03T04:35:35;25.47;;;15.47;;
7957;SDS011;4024;52.172;5.378;2023-03-03T04:38:01;27.60;;;15.43;;
7957;SDS011;4024;52.172;5.378;2023-03-03T04:40:26;27.67;;;15.87;;
7957;SDS011;4024;52.172;5.378;2023-03-03T04:42:52;24.13;;;14.23;;
7957;SDS011;4024;52.172;5.378;2023-03-03T04:45:17;24.33;;;14.93;;
7957;SDS011;4024;52.172;5.378;2023-03-03T04:47:43;23.80;;;15.03;;
7957;SDS011;4024;52.172;5.378;2023-03-03T04:50:15;25.60;;;15.37;;
7957;SDS011;4024;52.172;5.378;2023-03-03T04:52:41;24.77;;;15.50;;
7957;SDS011;4024;52.172;5.378;2023-03-03T04:55:06;24.70;;;14.10;;
7957;SDS011;4024;52.172;5.378;2023-03-03T04:57:47;29.73;;;15.50;;
7957;SDS011;4024;52.172;5.378;2023-03-03T05:00:13;27.03;;;15.00;;
7957;SDS011;4024;52.172;5.378;2023-03-03T05:02:40;25.67;;;15.70;;
7957;SDS011;4024;52.172;5.378;2023-03-03T05:05:07;23.83;;;14.03;;
7957;SDS011;4024;52.172;5.378;2023-03-03T05:07:37;30.13;;;15.50;;
7957;SDS011;4024;52.172;5.378;2023-03-03T05:10:03;24.27;;;14.63;;
7957;SDS011;4024;52.172;5.378;2023-03-03T05:12:30;27.90;;;16.20;;
7957;SDS011;4024;52.172;5.378;2023-03-03T05:14:55;28.60;;;14.87;;
7957;SDS011;4024;52.172;5.378;2023-03-03T05:17:21;29.00;;;15.67;;
7957;SDS011;4024;52.172;5.378;2023-03-03T05:19:46;27.93;;;15.63;;
7957;SDS011;4024;52.172;5.378;2023-03-03T05:22:12;31.93;;;15.97;;
7957;SDS011;4024;52.172;5.378;2023-03-03T05:24:38;26.07;;;14.30;;
7957;SDS011;4024;52.172;5.378;2023-03-03T05:27:03;26.70;;;14.37;;
7957;SDS011;4024;52.172;5.378;2023-03-03T05:29:30;28.43;;;15.33;;
7957;SDS011;4024;52.172;5.378;2023-03-03T05:31:56;33.13;;;16.17;;
7957;SDS011;4024;52.172;5.378;2023-03-03T05:34:22;30.97;;;16.00;;
7957;SDS011;4024;52.172;5.378;2023-03-03T05:36:48;28.33;;;16.83;;
7957;SDS011;4024;52.172;5.378;2023-03-03T05:39:15;36.87;;;15.27;;
7957;SDS011;4024;52.172;5.378;2023-03-03T05:41:40;30.63;;;15.63;;
7957;SDS011;4024;52.172;5.378;2023-03-03T05:44:06;32.87;;;16.63;;
7957;SDS011;4024;52.172;5.378;2023-03-03T05:46:32;29.87;;;15.33;;
7957;SDS011;4024;52.172;5.378;2023-03-03T05:48:57;32.07;;;16.33;;
7957;SDS011;4024;52.172;5.378;2023-03-03T05:51:23;29.07;;;15.70;;
7957;SDS011;4024;52.172;5.378;2023-03-03T05:53:49;31.17;;;16.07;;
7957;SDS011;4024;52.172;5.378;2023-03-03T05:56:14;34.30;;;17.50;;
7957;SDS011;4024;52.172;5.378;2023-03-03T05:58:40;32.37;;;15.73;;
7957;SDS011;4024;52.172;5.378;2023-03-03T06:01:06;31.23;;;17.47;;
7957;SDS011;4024;52.172;5.378;2023-03-03T06:03:31;34.40;;;16.60;;
7957;SDS011;4024;52.172;5.378;2023-03-03T06:05:57;36.90;;;16.77;;
7957;SDS011;4024;52.172;5.378;2023-03-03T06:08:22;42.80;;;17.73;;
7957;SDS011;4024;52.172;5.378;2023-03-03T06:10:48;35.73;;;17.27;;
7957;SDS011;4024;52.172;5.378;2023-03-03T06:13:14;32.57;;;17.33;;
7957;SDS011;4024;52.172;5.378;2023-03-03T06:15:39;32.57;;;17.37;;
7957;SDS011;4024;52.172;5.378;2023-03-03T06:18:05;28.80;;;17.20;;
7957;SDS011;4024;52.172;5.378;2023-03-03T06:20:30;29.00;;;15.83;;
7957;SDS011;4024;52.172;5.378;2023-03-03T06:22:57;32.33;;;16.80;;
7957;SDS011;4024;52.172;5.378;2023-03-03T06:25:23;31.53;;;16.30;;
7957;SDS011;4024;52.172;5.378;2023-03-03T06:27:48;29.03;;;15.87;;
7957;SDS011;4024;52.172;5.378;2023-03-03T06:30:14;31.83;;;16.50;;
7957;SDS011;4024;52.172;5.378;2023-03-03T06:32:40;31.13;;;16.47;;
7957;SDS011;4024;52.172;5.378;2023-03-03T06:35:05;27.47;;;15.47;;
7957;SDS011;4024;52.172;5.378;2023-03-03T06:37:31;24.67;;;14.30;;
7957;SDS011;4024;52.172;5.378;2023-03-03T06:39:57;28.57;;;15.83;;
7957;SDS011;4024;52.172;5.378;2023-03-03T06:42:22;29.53;;;15.53;;
7957;SDS011;4024;52.172;5.378;2023-03-03T06:44:48;31.10;;;15.37;;
7957;SDS011;4024;52.172;5.378;2023-03-03T06:47:14;28.93;;;16.27;;
7957;SDS011;4024;52.172;5.378;2023-03-03T06:49:40;24.27;;;14.70;;
7957;SDS011;4024;52.172;5.378;2023-03-03T06:52:11;25.83;;;15.17;;
7957;SDS011;4024;52.172;5.378;2023-03-03T06:54:39;27.43;;;15.50;;
7957;SDS011;4024;52.172;5.378;2023-03-03T06:57:15;34.80;;;16.37;;
7957;SDS011;4024;52.172;5.378;2023-03-03T06:59:45;28.23;;;16.23;;
7957;SDS011;4024;52.172;5.378;2023-03-03T07:02:16;25.77;;;13.90;;
7957;SDS011;4024;52.172;5.378;2023-03-03T07:04:42;30.87;;;15.33;;
7957;SDS011;4024;52.172;5.378;2023-03-03T07:07:18;26.43;;;14.87;;
7957;SDS011;4024;52.172;5.378;2023-03-03T07:09:47;29.63;;;15.20;;
7957;SDS011;4024;52.172;5.378;2023-03-03T07:12:15;29.10;;;14.73;;
7957;SDS011;4024;52.172;5.378;2023-03-03T07:15:32;29.33;;;15.53;;
7957;SDS011;4024;52.172;5.378;2023-03-03T07:17:45;24.63;;;15.20;;
7957;SDS011;4024;52.172;5.378;2023-03-03T07:20:17;24.47;;;14.10;;
7957;SDS011;4024;52.172;5.378;2023-03-03T07:22:45;26.43;;;13.27;;
7957;SDS011;4024;52.172;5.378;2023-03-03T07:25:44;23.77;;;13.60;;
7957;SDS011;4024;52.172;5.378;2023-03-03T07:28:21;26.30;;;14.03;;
7957;SDS011;4024;52.172;5.378;2023-03-03T07:30:50;29.07;;;14.13;;
7957;SDS011;4024;52.172;5.378;2023-03-03T07:33:53;28.60;;;14.40;;
7957;SDS011;4024;52.172;5.378;2023-03-03T07:36:34;22.57;;;12.87;;
7957;SDS011;4024;52.172;5.378;2023-03-03T07:39:17;29.27;;;14.17;;
7957;SDS011;4024;52.172;5.378;2023-03-03T07:41:49;23.30;;;13.67;;
7957;SDS011;4024;52.172;5.378;2023-03-03T07:44:30;24.93;;;13.13;;
7957;SDS011;4024;52.172;5.378;2023-03-03T07:47:01;26.20;;;13.70;;
7957;SDS011;4024;52.172;5.378;2023-03-03T07:50:07;23.33;;;14.80;;
7957;SDS011;4024;52.172;5.378;2023-03-03T07:52:43;30.93;;;13.70;;
7957;SDS011;4024;52.172;5.378;2023-03-03T07:57:54;28.27;;;14.13;;
7957;SDS011;4024;52.172;5.378;2023-03-03T08:02:53;29.07;;;15.20;;
7957;SDS011;4024;52.172;5.378;2023-03-03T08:05:26;29.03;;;15.40;;
7957;SDS011;4024;52.172;5.378;2023-03-03T08:08:09;29.00;;;14.97;;
7957;SDS011;4024;52.172;5.378;2023-03-03T08:18:34;24.37;;;13.50;;
7957;SDS011;4024;52.172;5.378;2023-03-03T08:21:11;28.43;;;13.90;;
7957;SDS011;4024;52.172;5.378;2023-03-03T08:23:47;25.87;;;14.33;;
7957;SDS011;4024;52.172;5.378;2023-03-03T08:26:17;23.50;;;14.10;;
7957;SDS011;4024;52.172;5.378;2023-03-03T08:28:44;27.30;;;14.17;;
7957;SDS011;4024;52.172;5.378;2023-03-03T08:31:10;24.43;;;14.43;;
7957;SDS011;4024;52.172;5.378;2023-03-03T08:33:36;24.23;;;13.77;;
7957;SDS011;4024;52.172;5.378;2023-03-03T08:36:02;21.50;;;12.30;;
7957;SDS011;4024;52.172;5.378;2023-03-03T08:38:29;22.90;;;12.93;;
7957;SDS011;4024;52.172;5.378;2023-03-03T08:40:54;20.90;;;12.47;;
7957;SDS011;4024;52.172;5.378;2023-03-03T08:43:20;18.10;;;11.17;;
7957;SDS011;4024;52.172;5.378;2023-03-03T08:45:50;23.40;;;12.13;;
7957;SDS011;4024;52.172;5.378;2023-03-03T08:48:17;21.47;;;11.93;;
7957;SDS011;4024;52.172;5.378;2023-03-03T08:50:43;21.20;;;12.00;;
7957;SDS011;4024;52.172;5.378;2023-03-03T08:53:10;20.03;;;12.33;;
7957;SDS011;4024;52.172;5.378;2023-03-03T08:55:37;23.70;;;13.23;;
7957;SDS011;4024;52.172;5.378;2023-03-03T08:58:03;24.10;;;12.67;;
7957;SDS011;4024;52.172;5.378;2023-03-03T09:00:29;25.90;;;12.77;;
7957;SDS011;4024;52.172;5.378;2023-03-03T09:02:54;23.13;;;13.03;;
7957;SDS011;4024;52.172;5.378;2023-03-03T09:05:20;24.10;;;13.90;;
7957;SDS011;4024;52.172;5.378;2023-03-03T09:07:48;23.87;;;12.93;;
7957;SDS011;4024;52.172;5.378;2023-03-03T09:10:16;21.30;;;11.43;;
7957;SDS011;4024;52.172;5.378;2023-03-03T09:12:45;24.33;;;13.03;;
7957;SDS011;4024;52.172;5.378;2023-03-03T09:15:19;20.17;;;11.97;;
7957;SDS011;4024;52.172;5.378;2023-03-03T09:17:47;20.37;;;11.53;;
7957;SDS011;4024;52.172;5.378;2023-03-03T09:28:53;18.07;;;9.73;;
7957;SDS011;4024;52.172;5.378;2023-03-03T09:34:19;14.07;;;8.37;;
7957;SDS011;4024;52.172;5.378;2023-03-03T09:36:52;14.37;;;8.60;;
7957;SDS011;4024;52.172;5.378;2023-03-03T09:39:20;11.57;;;8.10;;
7957;SDS011;4024;52.172;5.378;2023-03-03T09:44:58;14.40;;;9.37;;
7957;SDS011;4024;52.172;5.378;2023-03-03T09:56:32;17.50;;;9.03;;
7957;SDS011;4024;52.172;5.378;2023-03-03T09:59:08;14.27;;;8.30;;
7957;SDS011;4024;52.172;5.378;2023-03-03T10:02:01;12.57;;;9.33;;
7957;SDS011;4024;52.172;5.378;2023-03-03T10:15:47;13.43;;;7.80;;
7957;SDS011;4024;52.172;5.378;2023-03-03T10:18:38;12.50;;;7.70;;
7957;SDS011;4024;52.172;5.378;2023-03-03T10:21:34;11.57;;;7.17;;
7957;SDS011;4024;52.172;5.378;2023-03-03T10:26:45;9.90;;;6.80;;
7957;SDS011;4024;52.172;5.378;2023-03-03T10:29:23;11.30;;;6.43;;
7957;SDS011;4024;52.172;5.378;2023-03-03T10:35:22;10.40;;;6.63;;
7957;SDS011;4024;52.172;5.378;2023-03-03T10:44:33;8.23;;;5.83;;
7957;SDS011;4024;52.172;5.378;2023-03-03T10:49:50;7.60;;;5.53;;
7957;SDS011;4024;52.172;5.378;2023-03-03T11:00:49;9.87;;;4.70;;
7957;SDS011;4024;52.172;5.378;2023-03-03T11:09:27;7.30;;;5.07;;
7957;SDS011;4024;52.172;5.378;2023-03-03T11:12:50;8.67;;;4.93;;
7957;SDS011;4024;52.172;5.378;2023-03-03T11:29:30;5.47;;;3.40;;
7957;SDS011;4024;52.172;5.378;2023-03-03T11:37:49;5.03;;;3.67;;
7957;SDS011;4024;52.172;5.378;2023-03-03T11:40:40;6.53;;;3.10;;
7957;SDS011;4024;52.172;5.378;2023-03-03T11:43:17;4.97;;;3.57;;
7957;SDS011;4024;52.172;5.378;2023-03-03T11:46:14;5.53;;;3.37;;
7957;SDS011;4024;52.172;5.378;2023-03-03T11:48:58;6.13;;;3.67;;
7957;SDS011;4024;52.172;5.378;2023-03-03T11:52:02;7.57;;;3.70;;
7957;SDS011;4024;52.172;5.378;2023-03-03T11:54:51;5.70;;;3.40;;
7957;SDS011;4024;52.172;5.378;2023-03-03T11:57:27;6.67;;;3.17;;
7957;SDS011;4024;52.172;5.378;2023-03-03T12:00:02;3.97;;;3.13;;
7957;SDS011;4024;52.172;5.378;2023-03-03T12:02:50;4.70;;;2.60;;
7957;SDS011;4024;52.172;5.378;2023-03-03T12:11:24;3.83;;;2.30;;
7957;SDS011;4024;52.172;5.378;2023-03-03T12:13:58;4.23;;;2.37;;
7957;SDS011;4024;52.172;5.378;2023-03-03T12:16:48;3.20;;;2.47;;
7957;SDS011;4024;52.172;5.378;2023-03-03T12:19:40;3.83;;;2.53;;
7957;SDS011;4024;52.172;5.378;2023-03-03T12:22:30;3.93;;;2.13;;
7957;SDS011;4024;52.172;5.378;2023-03-03T12:25:17;2.23;;;1.80;;
7957;SDS011;4024;52.172;5.378;2023-03-03T12:49:42;7.43;;;3.50;;
7957;SDS011;4024;52.172;5.378;2023-03-03T12:55:04;4.63;;;3.90;;
7957;SDS011;4024;52.172;5.378;2023-03-03T12:58:01;4.00;;;3.13;;
7957;SDS011;4024;52.172;5.378;2023-03-03T13:03:08;4.60;;;3.30;;
7957;SDS011;4024;52.172;5.378;2023-03-03T13:17:08;3.53;;;2.83;;
7957;SDS011;4024;52.172;5.378;2023-03-03T13:19:55;3.13;;;2.57;;
7957;SDS011;4024;52.172;5.378;2023-03-03T13:25:33;3.40;;;2.90;;
7957;SDS011;4024;52.172;5.378;2023-03-03T13:28:18;4.53;;;2.90;;
7957;SDS011;4024;52.172;5.378;2023-03-03T13:30:51;4.83;;;2.70;;
7957;SDS011;4024;52.172;5.378;2023-03-03T13:33:29;3.23;;;2.87;;
7957;SDS011;4024;52.172;5.378;2023-03-03T13:36:01;3.97;;;3.20;;
7957;SDS011;4024;52.172;5.378;2023-03-03T13:38:33;3.73;;;2.50;;
7957;SDS011;4024;52.172;5.378;2023-03-03T13:41:10;4.43;;;3.07;;
7957;SDS011;4024;52.172;5.378;2023-03-03T13:43:47;3.60;;;2.43;;
7957;SDS011;4024;52.172;5.378;2023-03-03T13:46:25;3.73;;;2.33;;
7957;SDS011;4024;52.172;5.378;2023-03-03T13:51:51;3.53;;;2.20;;
7957;SDS011;4024;52.172;5.378;2023-03-03T13:58:15;2.60;;;2.00;;
7957;SDS011;4024;52.172;5.378;2023-03-03T14:06:31;3.03;;;1.90;;
7957;SDS011;4024;52.172;5.378;2023-03-03T14:19:27;2.03;;;1.80;;
7957;SDS011;4024;52.172;5.378;2023-03-03T14:30:41;3.13;;;1.63;;
7957;SDS011;4024;52.172;5.378;2023-03-03T14:35:37;3.50;;;1.80;;
7957;SDS011;4024;52.172;5.378;2023-03-03T14:40:34;2.73;;;1.63;;
7957;SDS011;4024;52.172;5.378;2023-03-03T14:43:04;2.20;;;1.60;;
7957;SDS011;4024;52.172;5.378;2023-03-03T14:45:46;3.80;;;1.63;;
7957;SDS011;4024;52.172;5.378;2023-03-03T14:48:30;3.37;;;1.83;;
7957;SDS011;4024;52.172;5.378;2023-03-03T14:50:59;3.60;;;2.07;;
7957;SDS011;4024;52.172;5.378;2023-03-03T14:53:53;1.60;;;1.50;;
7957;SDS011;4024;52.172;5.378;2023-03-03T14:59:09;3.50;;;2.00;;
7957;SDS011;4024;52.172;5.378;2023-03-03T15:01:43;4.43;;;1.73;;
7957;SDS011;4024;52.172;5.378;2023-03-03T15:09:19;4.17;;;2.20;;
7957;SDS011;4024;52.172;5.378;2023-03-03T15:12:16;3.10;;;1.80;;
7957;SDS011;4024;52.172;5.378;2023-03-03T15:14:48;4.57;;;1.93;;
7957;SDS011;4024;52.172;5.378;2023-03-03T15:25:35;3.50;;;1.80;;
7957;SDS011;4024;52.172;5.378;2023-03-03T15:31:21;3.00;;;1.80;;
7957;SDS011;4024;52.172;5.378;2023-03-03T15:33:58;5.40;;;1.80;;
7957;SDS011;4024;52.172;5.378;2023-03-03T15:39:06;5.53;;;2.00;;
7957;SDS011;4024;52.172;5.378;2023-03-03T15:41:44;3.67;;;1.83;;
7957;SDS011;4024;52.172;5.378;2023-03-03T15:44:20;3.10;;;2.23;;
7957;SDS011;4024;52.172;5.378;2023-03-03T15:47:15;2.93;;;1.70;;
7957;SDS011;4024;52.172;5.378;2023-03-03T15:55:25;3.20;;;1.80;;
7957;SDS011;4024;52.172;5.378;2023-03-03T15:58:02;3.13;;;1.80;;
7957;SDS011;4024;52.172;5.378;2023-03-03T16:00:52;2.50;;;1.60;;
7957;SDS011;4024;52.172;5.378;2023-03-03T16:03:35;4.70;;;1.97;;
7957;SDS011;4024;52.172;5.378;2023-03-03T16:06:05;6.23;;;1.93;;
7957;SDS011;4024;52.172;5.378;2023-03-03T16:11:17;4.20;;;1.87;;
7957;SDS011;4024;52.172;5.378;2023-03-03T16:19:34;3.50;;;1.83;;
7957;SDS011;4024;52.172;5.378;2023-03-03T16:28:00;6.30;;;3.03;;
7957;SDS011;4024;52.172;5.378;2023-03-03T16:31:05;4.73;;;2.13;;
7957;SDS011;4024;52.172;5.378;2023-03-03T16:39:19;7.57;;;2.83;;
7957;SDS011;4024;52.172;5.378;2023-03-03T16:41:56;4.63;;;2.00;;
7957;SDS011;4024;52.172;5.378;2023-03-03T16:48:02;5.50;;;2.37;;
7957;SDS011;4024;52.172;5.378;2023-03-03T16:53:00;5.47;;;2.60;;
7957;SDS011;4024;52.172;5.378;2023-03-03T16:56:00;5.90;;;2.33;;
7957;SDS011;4024;52.172;5.378;2023-03-03T17:08:57;7.30;;;2.67;;
7957;SDS011;4024;52.172;5.378;2023-03-03T17:11:44;5.13;;;2.20;;
7957;SDS011;4024;52.172;5.378;2023-03-03T17:14:27;3.47;;;2.00;;
7957;SDS011;4024;52.172;5.378;2023-03-03T17:16:59;5.77;;;2.80;;
7957;SDS011;4024;52.172;5.378;2023-03-03T17:22:15;7.03;;;2.60;;
7957;SDS011;4024;52.172;5.378;2023-03-03T17:33:23;7.83;;;2.50;;
7957;SDS011;4024;52.172;5.378;2023-03-03T17:35:56;4.33;;;2.50;;
7957;SDS011;4024;52.172;5.378;2023-03-03T17:38:29;7.33;;;3.17;;
7957;SDS011;4024;52.172;5.378;2023-03-03T17:41:08;7.33;;;3.30;;
7957;SDS011;4024;52.172;5.378;2023-03-03T17:43:51;8.97;;;3.67;;
7957;SDS011;4024;52.172;5.378;2023-03-03T17:48:58;6.87;;;2.90;;
7957;SDS011;4024;52.172;5.378;2023-03-03T18:02:22;10.23;;;4.67;;
7957;SDS011;4024;52.172;5.378;2023-03-03T18:13:36;14.20;;;3.80;;
7957;SDS011;4024;52.172;5.378;2023-03-03T18:16:43;11.63;;;2.90;;
7957;SDS011;4024;52.172;5.378;2023-03-03T18:19:42;10.50;;;2.87;;
7957;SDS011;4024;52.172;5.378;2023-03-03T18:22:31;13.67;;;3.93;;
7957;SDS011;4024;52.172;5.378;2023-03-03T18:25:03;10.60;;;3.70;;
7957;SDS011;4024;52.172;5.378;2023-03-03T18:27:34;8.47;;;3.30;;
7957;SDS011;4024;52.172;5.378;2023-03-03T18:35:26;10.63;;;3.37;;
7957;SDS011;4024;52.172;5.378;2023-03-03T18:38:16;12.63;;;3.67;;
7957;SDS011;4024;52.172;5.378;2023-03-03T18:41:03;9.83;;;3.93;;
7957;SDS011;4024;52.172;5.378;2023-03-03T18:46:44;12.87;;;3.57;;
7957;SDS011;4024;52.172;5.378;2023-03-03T18:49:00;13.27;;;4.47;;
7957;SDS011;4024;52.172;5.378;2023-03-03T18:54:04;11.97;;;3.80;;
7957;SDS011;4024;52.172;5.378;2023-03-03T19:02:16;17.13;;;4.47;;
7957;SDS011;4024;52.172;5.378;2023-03-03T19:10:04;9.77;;;4.03;;
7957;SDS011;4024;52.172;5.378;2023-03-03T19:12:54;14.87;;;4.07;;
7957;SDS011;4024;52.172;5.378;2023-03-03T19:18:04;15.50;;;4.10;;
7957;SDS011;4024;52.172;5.378;2023-03-03T19:20:41;8.13;;;3.60;;
7957;SDS011;4024;52.172;5.378;2023-03-03T19:23:48;19.93;;;4.30;;
7957;SDS011;4024;52.172;5.378;2023-03-03T19:26:19;9.83;;;3.23;;
7957;SDS011;4024;52.172;5.378;2023-03-03T19:34:55;13.13;;;3.67;;
7957;SDS011;4024;52.172;5.378;2023-03-03T19:37:38;16.87;;;4.23;;
7957;SDS011;4024;52.172;5.378;2023-03-03T19:40:36;14.30;;;4.10;;
7957;SDS011;4024;52.172;5.378;2023-03-03T19:43:39;17.43;;;4.03;;
7957;SDS011;4024;52.172;5.378;2023-03-03T19:49:07;13.93;;;3.97;;
7957;SDS011;4024;52.172;5.378;2023-03-03T19:52:04;10.83;;;3.37;;
7957;SDS011;4024;52.172;5.378;2023-03-03T20:00:33;19.13;;;5.10;;
7957;SDS011;4024;52.172;5.378;2023-03-03T20:06:05;17.33;;;4.13;;
7957;SDS011;4024;52.172;5.378;2023-03-03T20:14:22;11.30;;;3.43;;
7957;SDS011;4024;52.172;5.378;2023-03-03T20:17:23;12.90;;;3.77;;
7957;SDS011;4024;52.172;5.378;2023-03-03T20:20:38;14.53;;;4.37;;
7957;SDS011;4024;52.172;5.378;2023-03-03T20:23:15;15.60;;;4.53;;
7957;SDS011;4024;52.172;5.378;2023-03-03T20:31:24;10.93;;;3.63;;
7957;SDS011;4024;52.172;5.378;2023-03-03T20:45:07;17.17;;;3.40;;
7957;SDS011;4024;52.172;5.378;2023-03-03T20:47:54;15.47;;;3.47;;
7957;SDS011;4024;52.172;5.378;2023-03-03T20:53:42;10.53;;;4.07;;
7957;SDS011;4024;52.172;5.378;2023-03-03T20:56:38;14.30;;;3.73;;
7957;SDS011;4024;52.172;5.378;2023-03-03T21:04:40;15.60;;;3.90;;
7957;SDS011;4024;52.172;5.378;2023-03-03T21:07:06;11.43;;;3.70;;
7957;SDS011;4024;52.172;5.378;2023-03-03T21:12:09;13.53;;;4.07;;
7957;SDS011;4024;52.172;5.378;2023-03-03T21:15:02;15.03;;;4.20;;
7957;SDS011;4024;52.172;5.378;2023-03-03T21:17:35;15.70;;;3.90;;
7957;SDS011;4024;52.172;5.378;2023-03-03T21:20:17;11.67;;;3.77;;
7957;SDS011;4024;52.172;5.378;2023-03-03T21:22:52;16.67;;;3.83;;
7957;SDS011;4024;52.172;5.378;2023-03-03T21:28:27;10.23;;;3.60;;
7957;SDS011;4024;52.172;5.378;2023-03-03T21:31:06;9.47;;;3.83;;
7957;SDS011;4024;52.172;5.378;2023-03-03T21:36:23;17.13;;;4.57;;
7957;SDS011;4024;52.172;5.378;2023-03-03T21:41:56;19.37;;;4.37;;
7957;SDS011;4024;52.172;5.378;2023-03-03T21:44:41;13.03;;;3.90;;
7957;SDS011;4024;52.172;5.378;2023-03-03T21:47:10;15.97;;;4.17;;
7957;SDS011;4024;52.172;5.378;2023-03-03T21:49:39;14.53;;;4.13;;